Alcala del Valle, Spain
Current Conditions -  °F | °C
As of 8:00 PM on Saturday 25 Oct 2014 (Local Time) from LEMO Reporting Station
Clear Clear  
Wind Chill: 73°   Ceiling: Unl
Heat Index: 73°   Visibility: 6mi
Dew Point: 46°   Wind: 3mph
Humidity: 38%   Direction: 270°W
Pressure: 30.03"   Gusts: NA
Location:  36.9°N, 5.17°W
Report Text: LEMO 251800Z 27003KT CAVOK 23/08 Q1017 NOSIG
Loading
Personal Weather Stations






























Interactive Weather Map
Tropical Storm Tracking
New forecast layout! Learn more

10-Day Weather Forecast

Advertisements
Track Severe Weather on mobile